createdAt,value
2022-09-01T00:02:51.083Z,18.6
2022-09-01T00:07:57.232Z,18.5
2022-09-01T00:13:03.447Z,18.5
2022-09-01T00:18:09.647Z,18.5
2022-09-01T00:23:15.852Z,18.4
2022-09-01T00:28:22.061Z,18.4
2022-09-01T00:33:28.264Z,18.4
2022-09-01T00:38:34.473Z,18.3
2022-09-01T00:43:40.691Z,18.2
2022-09-01T00:48:45.917Z,18.2
2022-09-01T00:53:52.135Z,18.1
2022-09-01T00:58:57.367Z,18.1
2022-09-01T01:04:03.575Z,18.0
2022-09-01T01:09:09.789Z,18.0
2022-09-01T01:14:15.991Z,18.0
2022-09-01T01:19:22.200Z,17.9
2022-09-01T01:24:28.411Z,17.8
2022-09-01T01:29:34.610Z,17.8
2022-09-01T01:34:40.828Z,17.7
2022-09-01T01:39:47.046Z,17.7
2022-09-01T01:44:53.236Z,17.7
2022-09-01T01:49:59.451Z,17.6
2022-09-01T01:55:05.656Z,17.5
2022-09-01T02:00:11.876Z,17.5
2022-09-01T02:05:18.075Z,17.4
2022-09-01T02:10:24.281Z,17.4
2022-09-01T02:15:30.498Z,17.3
2022-09-01T02:20:36.696Z,17.3
2022-09-01T02:25:59.000Z,17.3
2022-09-01T02:30:49.156Z,17.2
2022-09-01T02:35:55.323Z,17.2
2022-09-01T02:41:01.529Z,17.1
2022-09-01T02:46:06.795Z,17.1
2022-09-01T02:51:12.975Z,17.0
2022-09-01T02:56:18.222Z,17.0
2022-09-01T03:01:24.830Z,16.9
2022-09-01T03:06:30.643Z,16.8
2022-09-01T03:11:36.842Z,16.8
2022-09-01T03:16:43.106Z,16.7
2022-09-01T03:21:49.254Z,16.7
2022-09-01T03:26:55.463Z,16.6
2022-09-01T03:32:01.753Z,16.5
2022-09-01T03:37:07.893Z,16.5
2022-09-01T03:42:14.096Z,16.4
2022-09-01T03:47:20.309Z,16.4
2022-09-01T03:52:26.519Z,16.3
2022-09-01T03:57:32.725Z,16.3
2022-09-01T04:02:39.009Z,16.2
2022-09-01T04:07:45.168Z,16.2
2022-09-01T04:12:51.384Z,16.1
2022-09-01T04:17:57.600Z,16.1
2022-09-01T04:23:03.816Z,16.0
2022-09-01T04:28:10.028Z,16.0
2022-09-01T04:33:16.247Z,16.0
2022-09-01T04:38:22.470Z,15.9
2022-09-01T04:43:27.701Z,15.9
2022-09-01T04:48:33.918Z,15.9
2022-09-01T04:53:39.171Z,15.8
2022-09-01T04:58:45.387Z,15.8
2022-09-01T05:03:51.588Z,15.8
2022-09-01T05:08:57.806Z,15.8
2022-09-01T05:14:04.032Z,15.8
2022-09-01T05:19:10.233Z,15.8
2022-09-01T05:24:16.477Z,15.8
2022-09-01T05:29:22.668Z,15.8
2022-09-01T05:34:28.895Z,15.9
2022-09-01T05:39:35.099Z,15.9
2022-09-01T05:44:41.323Z,15.9
2022-09-01T05:49:47.530Z,16.0
2022-09-01T05:54:53.734Z,16.0
2022-09-01T05:59:59.954Z,16.1
2022-09-01T06:05:06.170Z,16.2
2022-09-01T06:10:12.378Z,16.3
2022-09-01T06:15:18.662Z,16.5
2022-09-01T06:20:24.805Z,16.7
2022-09-01T06:25:31.013Z,17.0
2022-09-01T06:30:37.219Z,17.2
2022-09-01T06:35:43.432Z,17.5
2022-09-01T06:40:48.779Z,17.8
2022-09-01T06:45:55.267Z,18.1
2022-09-01T06:56:07.290Z,18.7
2022-09-01T07:01:14.254Z,19.0
2022-09-01T07:16:34.665Z,19.6
2022-09-01T07:26:47.296Z,19.9
2022-09-01T07:31:52.204Z,20.0
2022-09-01T07:52:15.578Z,20.7
2022-09-01T07:57:21.787Z,21.0
2022-09-01T08:02:28.123Z,21.2
2022-09-01T08:07:51.746Z,21.5
2022-09-01T08:12:40.414Z,21.7
2022-09-01T08:17:52.356Z,22.0
2022-09-01T08:22:52.832Z,22.3
2022-09-01T08:28:00.493Z,22.6
2022-09-01T08:33:10.676Z,22.8
2022-09-01T08:38:09.513Z,23.1
2022-09-01T08:43:15.792Z,23.4
2022-09-01T08:53:27.169Z,23.8
2022-09-01T08:58:33.381Z,24.0
2022-09-01T09:03:40.962Z,24.2
2022-09-01T09:08:45.803Z,24.4
2022-09-01T09:13:52.007Z,24.5
2022-09-01T09:18:58.213Z,24.7
2022-09-01T09:24:04.925Z,24.9
2022-09-01T09:29:10.635Z,25.1
2022-09-01T09:34:16.854Z,25.3
2022-09-01T09:39:23.047Z,25.4
2022-09-01T09:44:29.257Z,25.4
2022-09-01T09:49:42.258Z,25.5
2022-09-01T09:54:41.677Z,25.6
2022-09-01T09:59:58.753Z,25.7
2022-09-01T10:04:55.886Z,25.7
2022-09-01T10:10:00.299Z,25.7
2022-09-01T10:15:11.552Z,25.9
2022-09-01T10:20:12.733Z,26.0
2022-09-01T10:25:18.936Z,26.2
2022-09-01T10:30:25.199Z,26.3
2022-09-01T10:35:30.378Z,26.4
2022-09-01T10:40:36.587Z,26.5
2022-09-01T10:45:41.894Z,26.7
2022-09-01T10:50:49.713Z,26.8
2022-09-01T10:55:59.070Z,26.9
2022-09-01T11:06:13.354Z,27.2
2022-09-01T11:11:12.888Z,27.2
2022-09-01T11:16:45.792Z,27.1
2022-09-01T11:21:25.766Z,27.1
2022-09-01T11:26:31.516Z,27.1
2022-09-01T11:31:37.894Z,27.1
2022-09-01T11:36:43.943Z,27.2
2022-09-01T11:41:54.512Z,27.3
2022-09-01T11:46:56.375Z,27.3
2022-09-01T11:52:02.583Z,27.4
2022-09-01T11:57:07.812Z,27.5
2022-09-01T12:02:14.212Z,27.6
2022-09-01T12:07:20.249Z,27.7
2022-09-01T12:12:26.464Z,27.7
2022-09-01T12:17:32.679Z,27.6
2022-09-01T12:22:38.898Z,27.7
2022-09-01T12:27:45.116Z,27.7
2022-09-01T12:32:50.419Z,27.8
2022-09-01T12:37:56.570Z,27.9
2022-09-01T12:43:01.817Z,28.1
2022-09-01T12:48:08.033Z,28.2
2022-09-01T12:53:14.253Z,28.3
2022-09-01T12:58:20.468Z,28.4
2022-09-01T13:03:26.692Z,28.5
2022-09-01T13:08:32.898Z,28.6
2022-09-01T13:13:39.141Z,28.6
2022-09-01T13:23:51.565Z,28.7
2022-09-01T13:28:57.783Z,28.7
2022-09-01T13:34:23.454Z,28.7
2022-09-01T13:39:10.211Z,28.6
2022-09-01T13:44:17.399Z,28.7
2022-09-01T13:54:28.889Z,28.9
2022-09-01T13:59:35.117Z,28.9
2022-09-01T14:04:41.383Z,29.0
2022-09-01T14:09:47.570Z,29.2
2022-09-01T14:20:00.011Z,29.3
2022-09-01T14:25:06.244Z,29.3
2022-09-01T14:30:11.658Z,29.3
2022-09-01T14:35:17.697Z,29.3
2022-09-01T14:40:22.972Z,29.3
2022-09-01T14:45:29.167Z,29.3
2022-09-01T14:50:35.385Z,29.3
2022-09-01T14:55:44.013Z,29.3
2022-09-01T15:00:47.935Z,29.3
2022-09-01T15:05:54.041Z,29.3
2022-09-01T15:11:00.254Z,29.3
2022-09-01T15:16:06.616Z,29.4
2022-09-01T15:21:12.691Z,29.4
2022-09-01T15:26:18.907Z,29.2
2022-09-01T15:31:32.459Z,29.2
2022-09-01T15:36:31.346Z,29.3
2022-09-01T15:41:37.562Z,29.4
2022-09-01T15:46:43.815Z,29.4
2022-09-01T15:51:50.006Z,29.4
2022-09-01T15:56:56.220Z,29.4
2022-09-01T16:02:02.615Z,29.5
2022-09-01T16:07:08.658Z,29.4
2022-09-01T16:12:14.873Z,29.3
2022-09-01T16:17:21.115Z,29.3
2022-09-01T16:22:27.318Z,29.4
2022-09-01T16:27:32.564Z,29.3
2022-09-01T16:32:38.779Z,29.3
2022-09-01T16:37:44.997Z,29.3
2022-09-01T16:42:51.213Z,29.3
2022-09-01T16:47:57.429Z,29.3
2022-09-01T16:53:03.651Z,29.3
2022-09-01T16:58:10.972Z,29.3
2022-09-01T17:03:17.569Z,29.2
2022-09-01T17:08:22.305Z,29.0
2022-09-01T17:13:28.521Z,28.8
2022-09-01T17:18:34.746Z,28.6
2022-09-01T17:23:40.965Z,28.5
2022-09-01T17:28:47.188Z,28.4
2022-09-01T17:33:53.425Z,28.2
2022-09-01T17:38:59.630Z,27.8
2022-09-01T17:44:05.834Z,27.6
2022-09-01T17:49:12.056Z,27.3
2022-09-01T17:54:18.275Z,27.0
2022-09-01T17:59:24.488Z,26.6
2022-09-01T18:04:30.702Z,26.3
2022-09-01T18:09:36.910Z,26.0
2022-09-01T18:14:42.150Z,25.7
2022-09-01T18:19:48.362Z,25.4
2022-09-01T18:24:53.599Z,25.1
2022-09-01T18:29:59.808Z,24.9
2022-09-01T18:35:06.018Z,24.6
2022-09-01T18:40:11.286Z,24.3
2022-09-01T18:45:17.462Z,24.1
2022-09-01T18:50:23.751Z,23.9
2022-09-01T18:55:29.886Z,23.7
2022-09-01T19:00:36.089Z,23.5
2022-09-01T19:05:42.300Z,23.4
2022-09-01T19:10:48.508Z,23.2
2022-09-01T19:15:54.772Z,23.0
2022-09-01T19:21:00.922Z,22.8
2022-09-01T19:26:07.135Z,22.7
2022-09-01T19:31:13.476Z,22.6
2022-09-01T19:36:19.557Z,22.4
2022-09-01T19:41:25.767Z,22.3
2022-09-01T19:46:32.015Z,22.1
2022-09-01T19:51:38.177Z,22.0
2022-09-01T19:56:49.446Z,21.9
2022-09-01T20:01:50.698Z,21.7
2022-09-01T20:06:56.811Z,21.6
2022-09-01T20:12:03.013Z,21.5
2022-09-01T20:17:09.220Z,21.4
2022-09-01T20:22:15.431Z,21.3
2022-09-01T20:27:20.660Z,21.2
2022-09-01T20:32:26.871Z,21.1
2022-09-01T20:37:32.109Z,21.0
2022-09-01T20:42:38.317Z,20.9
2022-09-01T20:47:44.522Z,20.8
2022-09-01T20:52:50.739Z,20.7
2022-09-01T20:57:56.939Z,20.6
2022-09-01T21:03:03.250Z,20.5
2022-09-01T21:08:09.356Z,20.4
2022-09-01T21:13:15.561Z,20.3
2022-09-01T21:18:21.772Z,20.3
2022-09-01T21:23:27.984Z,20.2
2022-09-01T21:28:34.188Z,20.1
2022-09-01T21:33:40.396Z,20.0
2022-09-01T21:38:46.603Z,19.9
2022-09-01T21:43:52.813Z,19.9
2022-09-01T21:48:59.022Z,19.8
2022-09-01T21:54:05.230Z,19.7
2022-09-01T21:59:11.443Z,19.7
2022-09-01T22:04:17.645Z,19.6
2022-09-01T22:09:23.857Z,19.6
2022-09-01T22:14:30.061Z,19.5
2022-09-01T22:19:36.274Z,19.4
2022-09-01T22:24:41.505Z,19.4
2022-09-01T22:29:47.721Z,19.3
2022-09-01T22:34:52.950Z,19.3
2022-09-01T22:39:59.152Z,19.3
2022-09-01T22:45:05.368Z,19.2
2022-09-01T22:50:11.573Z,19.2
2022-09-01T22:55:17.782Z,19.1
2022-09-01T23:00:23.992Z,19.1
2022-09-01T23:05:30.201Z,19.0
2022-09-01T23:10:36.402Z,18.9
2022-09-01T23:15:42.617Z,18.9
2022-09-01T23:20:48.823Z,18.8
2022-09-01T23:25:55.037Z,18.7
2022-09-01T23:31:01.236Z,18.6
2022-09-01T23:36:07.445Z,18.6
2022-09-01T23:41:13.652Z,18.5
2022-09-01T23:46:19.971Z,18.4
2022-09-01T23:51:26.069Z,18.4
2022-09-01T23:56:32.284Z,18.3
